Time;durP1;ratioP1;P1;durP2;ratioP2;P2;SDS_P1;SDS_P2;PMS_P1;PMS_P2;Temp;Humidity;BMP_temperature;BMP_pressure;BME280_temperature;BME280_humidity;BME280_pressure;Samples;Min_cycle;Max_cycle;Signal;HPM_P1;HPM_P2
2023/01/10 00:02:05;;;;;;;8.85;2.10;;;8.60;90.00;;;;;;7385906;19;20019;-83
2023/01/10 00:04:33;;;;;;;11.70;2.50;;;8.50;90.00;;;;;;7394799;19;20047;-83
2023/01/10 00:07:02;;;;;;;14.45;2.22;;;8.50;90.10;;;;;;7413720;19;20018;-84
2023/01/10 00:09:31;;;;;;;13.75;2.60;;;8.50;90.00;;;;;;7389211;19;20018;-83
2023/01/10 00:14:43;;;;;;;19.33;3.22;;;8.50;90.00;;;;;;7385981;19;20447;-83
2023/01/10 00:17:12;;;;;;;15.82;3.55;;;8.50;90.30;;;;;;7385582;19;20038;-84
2023/01/10 00:19:41;;;;;;;31.92;8.00;;;8.50;90.00;;;;;;7385793;19;20035;-83
2023/01/10 00:22:21;;;;;;;16.88;4.97;;;8.40;89.60;;;;;;7402608;19;20014;-83
2023/01/10 00:24:53;;;;;;;23.70;3.38;;;8.40;89.70;;;;;;7382431;19;20014;-83
2023/01/10 00:27:25;;;;;;;19.92;3.55;;;8.30;90.00;;;;;;7384513;19;20010;-83
2023/01/10 00:29:54;;;;;;;24.20;2.42;;;8.20;90.00;;;;;;7393263;19;20038;-84
2023/01/10 00:32:24;;;;;;;23.02;3.03;;;8.20;90.20;;;;;;7392786;19;20053;-84
2023/01/10 00:34:53;;;;;;;23.58;2.83;;;8.20;90.30;;;;;;7397170;19;20026;-83
2023/01/10 00:37:21;;;;;;;22.52;2.65;;;8.20;90.30;;;;;;7415848;19;20006;-83
2023/01/10 00:39:50;;;;;;;21.42;2.35;;;8.20;90.30;;;;;;7392037;19;20439;-83
2023/01/10 00:45:02;;;;;;;27.25;3.47;;;8.30;90.20;;;;;;7393463;19;20045;-82
2023/01/10 00:47:31;;;;;;;;;;;8.20;90.10;;;;;;7393740;19;20106;-82
2023/01/10 00:50:00;;;;;;;23.77;2.50;;;8.30;90.20;;;;;;7394560;19;19915;-83
2023/01/10 00:52:28;;;;;;;12.13;1.83;;;8.20;90.00;;;;;;7386301;19;20458;-82
2023/01/10 00:54:57;;;;;;;17.58;2.80;;;8.20;89.70;;;;;;7404813;19;20023;-83
2023/01/10 00:57:26;;;;;;;15.98;3.28;;;8.20;89.40;;;;;;7384531;19;20370;-83
2023/01/10 00:59:55;;;;;;;17.13;2.00;;;8.20;89.40;;;;;;7385959;19;20018;-83
2023/01/10 01:02:26;;;;;;;15.05;2.75;;;8.10;89.50;;;;;;7383365;19;20092;-83
2023/01/10 01:04:55;;;;;;;15.75;2.88;;;8.10;89.30;;;;;;7376533;19;20136;-83
2023/01/10 01:07:23;;;;;;;18.08;2.60;;;8.10;89.60;;;;;;7374139;19;20081;-83
2023/01/10 01:12:33;;;;;;;13.75;2.30;;;8.10;89.60;;;;;;7371359;19;20014;-84
2023/01/10 01:15:02;;;;;;;17.52;2.55;;;8.10;89.40;;;;;;7375148;19;20018;-83
2023/01/10 01:17:34;;;;;;;15.90;2.35;;;8.10;89.40;;;;;;7374010;19;20523;-84
2023/01/10 01:20:05;;;;;;;21.08;2.53;;;8.20;89.30;;;;;;7373833;19;20669;-82
2023/01/10 01:22:33;;;;;;;20.58;3.08;;;8.10;89.10;;;;;;7373842;19;20018;-83
2023/01/10 01:25:03;;;;;;;11.95;2.35;;;8.10;89.20;;;;;;7396890;19;20039;-84
2023/01/10 01:27:33;;;;;;;26.73;2.80;;;8.10;89.60;;;;;;7374511;19;20011;-84
2023/01/10 01:30:02;;;;;;;17.52;2.85;;;8.10;89.40;;;;;;7374685;19;20030;-84
2023/01/10 01:32:33;;;;;;;18.90;2.38;;;8.10;89.10;;;;;;7383062;19;20022;-83
2023/01/10 01:35:03;;;;;;;12.82;2.25;;;8.10;88.80;;;;;;7383551;19;20025;-83
2023/01/10 01:37:32;;;;;;;15.25;2.30;;;8.10;88.80;;;;;;7374923;19;20035;-83
2023/01/10 01:40:01;;;;;;;15.52;2.25;;;8.10;89.90;;;;;;7394965;19;20594;-83
2023/01/10 01:42:31;;;;;;;18.42;2.53;;;8.10;89.10;;;;;;7373204;19;20031;-83
2023/01/10 01:45:32;;;;;;;17.43;2.80;;;8.10;89.10;;;;;;7371991;19;20011;-84
2023/01/10 01:48:31;;;;;;;26.17;2.50;;;8.00;88.40;;;;;;7372334;19;20057;-83
2023/01/10 01:51:04;;;;;;;19.00;2.13;;;7.90;88.60;;;;;;7372557;19;20014;-84
2023/01/10 01:53:38;;;;;;;22.80;2.80;;;7.90;89.10;;;;;;7371501;19;20053;-84
2023/01/10 01:56:12;;;;;;;13.82;3.03;;;7.90;89.30;;;;;;7371550;19;20022;-84
2023/01/10 01:58:46;;;;;;;21.20;3.00;;;8.00;89.40;;;;;;7377907;19;20019;-85
2023/01/10 02:01:19;;;;;;;25.60;2.47;;;8.00;89.70;;;;;;7401293;19;20023;-84
2023/01/10 02:03:54;;;;;;;20.80;2.53;;;7.90;89.80;;;;;;7382989;19;20029;-84
2023/01/10 02:06:25;;;;;;;17.00;2.80;;;8.00;89.90;;;;;;7384793;19;20028;-83
2023/01/10 02:09:01;;;;;;;19.33;2.50;;;8.00;89.60;;;;;;7383086;19;20017;-83
2023/01/10 02:11:31;;;;;;;15.60;2.17;;;7.90;89.40;;;;;;7375845;19;20014;-84
2023/01/10 02:14:02;;;;;;;21.10;3.13;;;7.90;90.10;;;;;;7375154;19;20034;-84
2023/01/10 02:16:31;;;;;;;23.65;5.00;;;7.90;89.40;;;;;;7380119;19;20015;-84
2023/01/10 02:19:02;;;;;;;18.13;5.47;;;7.90;89.40;;;;;;7400814;19;20058;-84
2023/01/10 02:21:45;;;;;;;;;;;7.90;89.00;;;;;;7374253;19;20313;-83
2023/01/10 02:24:50;;;;;;;21.02;4.75;;;8.00;89.30;;;;;;7370439;19;20190;-84
2023/01/10 02:27:27;;;;;;;25.58;4.47;;;7.90;89.20;;;;;;7371055;19;20090;-84
2023/01/10 02:30:35;;;;;;;20.73;5.18;;;7.90;89.00;;;;;;7370888;19;20018;-84
2023/01/10 02:33:15;;;;;;;18.95;5.78;;;7.90;89.10;;;;;;7368102;19;20097;-83
2023/01/10 02:36:14;;;;;;;22.23;4.60;;;7.90;89.00;;;;;;7368850;19;20698;-84
2023/01/10 02:38:53;;;;;;;25.35;4.40;;;7.90;89.00;;;;;;7371981;19;20018;-84
2023/01/10 02:41:32;;;;;;;15.35;4.65;;;7.90;89.20;;;;;;7370727;19;20043;-84
2023/01/10 02:44:06;;;;;;;13.73;4.22;;;7.90;89.20;;;;;;7371846;19;20085;-84
2023/01/10 02:46:36;;;;;;;19.33;4.65;;;8.00;89.10;;;;;;7371492;19;20015;-83
2023/01/10 02:49:08;;;;;;;16.00;4.50;;;7.90;88.90;;;;;;7388675;19;20010;-83
2023/01/10 02:51:36;;;;;;;13.10;3.60;;;8.00;88.90;;;;;;7370252;19;20014;-83
2023/01/10 02:54:09;;;;;;;26.13;3.30;;;7.90;88.60;;;;;;7370540;19;20014;-84
2023/01/10 02:57:08;;;;;;;19.85;3.63;;;7.90;88.60;;;;;;7371407;19;20018;-84
2023/01/10 03:00:03;;;;;;;24.25;3.72;;;8.00;88.80;;;;;;7377497;19;20113;-84
2023/01/10 03:02:46;;;;;;;20.15;3.38;;;7.90;88.70;;;;;;7380283;19;20078;-83
2023/01/10 03:05:28;;;;;;;17.75;3.28;;;7.90;88.60;;;;;;7380866;19;20014;-84
2023/01/10 03:08:03;;;;;;;18.85;3.75;;;8.00;88.70;;;;;;7379013;19;20035;-84
2023/01/10 03:10:38;;;;;;;18.45;3.97;;;7.90;89.00;;;;;;7374216;19;20011;-83
2023/01/10 03:13:13;;;;;;;16.02;3.08;;;8.00;89.10;;;;;;7395263;19;20014;-84
2023/01/10 03:15:44;;;;;;;20.02;3.10;;;8.00;89.10;;;;;;7373745;19;20014;-84
2023/01/10 03:18:18;;;;;;;18.88;3.10;;;8.00;89.10;;;;;;7376660;19;20039;-84
2023/01/10 03:20:53;;;;;;;8.90;2.47;;;8.00;89.20;;;;;;7376097;19;20018;-83
2023/01/10 03:23:24;;;;;;;10.65;2.20;;;8.00;89.30;;;;;;7373020;19;20018;-84
2023/01/10 03:25:54;;;;;;;23.42;2.85;;;8.00;89.20;;;;;;7374409;19;20050;-85
2023/01/10 03:28:29;;;;;;;9.77;2.13;;;8.10;89.00;;;;;;7384403;19;20022;-84
2023/01/10 03:31:03;;;;;;;13.82;2.75;;;8.00;89.70;;;;;;7392971;19;20011;-84
2023/01/10 03:33:34;;;;;;;15.07;2.97;;;8.10;89.40;;;;;;7376255;19;20018;-84
2023/01/10 03:36:17;;;;;;;12.82;2.78;;;8.10;89.60;;;;;;7376445;19;20015;-84
2023/01/10 03:38:53;;;;;;;18.13;3.83;;;8.10;89.30;;;;;;7381861;19;20597;-84
2023/01/10 03:41:34;;;;;;;27.77;3.63;;;8.10;89.30;;;;;;7386574;19;20038;-84
2023/01/10 03:47:00;;;;;;;12.40;2.72;;;8.20;89.80;;;;;;7379500;19;20070;-85
2023/01/10 03:49:31;;;;;;;22.17;3.00;;;8.20;90.00;;;;;;7371911;19;20048;-85
2023/01/10 03:52:03;;;;;;;14.90;3.35;;;8.20;90.30;;;;;;7391962;19;20018;-84
2023/01/10 03:54:32;;;;;;;13.13;3.35;;;8.30;89.80;;;;;;7370515;19;20023;-83
2023/01/10 03:57:01;;;;;;;15.35;3.15;;;8.30;89.70;;;;;;7368086;19;20184;-84
2023/01/10 03:59:31;;;;;;;26.05;3.20;;;8.30;89.70;;;;;;7368225;19;20011;-84
2023/01/10 04:02:00;;;;;;;13.73;3.35;;;8.30;89.60;;;;;;7368312;19;20018;-84
2023/01/10 04:04:28;;;;;;;9.15;1.90;;;8.30;89.70;;;;;;7371814;19;20010;-83
2023/01/10 04:06:57;;;;;;;16.40;3.05;;;8.30;89.90;;;;;;7392545;19;20108;-83
2023/01/10 04:09:29;;;;;;;13.20;2.92;;;8.40;90.00;;;;;;7369201;19;20070;-83
2023/01/10 04:11:57;;;;;;;;;;;8.40;90.00;;;;;;7370709;19;20034;-84
2023/01/10 04:14:26;;;;;;;19.33;4.65;;;8.50;90.00;;;;;;7367997;19;19914;-83
2023/01/10 04:16:55;;;;;;;19.42;2.70;;;8.40;90.00;;;;;;7365961;19;20645;-83
2023/01/10 04:19:24;;;;;;;15.73;3.88;;;8.40;90.00;;;;;;7367996;19;20482;-83
2023/01/10 04:21:52;;;;;;;23.10;4.38;;;8.40;90.10;;;;;;7390903;19;20070;-83
2023/01/10 04:24:21;;;;;;;20.50;3.60;;;8.40;90.20;;;;;;7370834;19;20032;-83
2023/01/10 04:26:52;;;;;;;18.23;3.53;;;8.40;90.20;;;;;;7380130;19;20031;-83
2023/01/10 04:29:21;;;;;;;17.95;3.67;;;8.50;90.20;;;;;;7377668;19;20438;-84
2023/01/10 04:31:50;;;;;;;16.38;3.10;;;8.50;90.20;;;;;;7369505;19;20031;-83
2023/01/10 04:34:19;;;;;;;25.90;3.33;;;8.50;90.20;;;;;;7387061;19;20090;-84
2023/01/10 04:36:47;;;;;;;20.25;3.47;;;8.50;90.20;;;;;;7365470;19;20023;-83
2023/01/10 04:39:16;;;;;;;14.40;3.40;;;8.50;90.30;;;;;;7367362;19;20028;-84
2023/01/10 04:41:45;;;;;;;22.55;3.50;;;8.60;90.30;;;;;;7374266;19;20019;-85
2023/01/10 04:44:16;;;;;;;21.60;3.03;;;8.60;90.30;;;;;;7374470;19;20028;-84
2023/01/10 04:46:45;;;;;;;;;;;8.60;90.20;;;;;;7377344;19;20493;-84
2023/01/10 04:49:14;;;;;;;26.88;3.20;;;8.60;90.30;;;;;;7398828;19;19990;-83
2023/01/10 04:51:43;;;;;;;22.23;3.03;;;8.60;90.30;;;;;;7376238;19;20044;-83
2023/01/10 04:54:11;;;;;;;14.75;3.05;;;8.60;90.30;;;;;;7375984;19;20129;-84
2023/01/10 04:56:40;;;;;;;17.83;3.08;;;8.60;90.40;;;;;;7378284;19;20050;-83
2023/01/10 04:59:10;;;;;;;16.30;2.85;;;8.60;90.30;;;;;;7378111;19;20022;-83
2023/01/10 05:01:42;;;;;;;18.33;2.95;;;8.60;90.30;;;;;;7381495;19;20026;-83
2023/01/10 05:04:11;;;;;;;17.52;2.58;;;8.70;90.50;;;;;;7406217;19;20031;-83
2023/01/10 05:06:40;;;;;;;15.07;3.10;;;8.70;90.50;;;;;;7387627;19;20473;-84
2023/01/10 05:09:10;;;;;;;13.63;3.42;;;8.70;90.50;;;;;;7387447;19;20018;-83
2023/01/10 05:11:38;;;;;;;20.83;4.03;;;8.70;90.50;;;;;;7381333;19;20019;-83
2023/01/10 05:14:07;;;;;;;18.88;3.80;;;8.70;90.90;;;;;;7388999;19;20022;-83
2023/01/10 05:16:36;;;;;;;13.50;3.40;;;8.70;90.50;;;;;;7396650;19;20022;-84
2023/01/10 05:19:07;;;;;;;18.25;2.95;;;8.70;90.50;;;;;;7420523;19;20101;-85
2023/01/10 05:21:36;;;;;;;15.98;3.08;;;8.70;90.40;;;;;;7392050;19;20014;-85
2023/01/10 05:24:05;;;;;;;21.75;3.33;;;8.70;90.50;;;;;;7387814;19;20035;-86
2023/01/10 05:26:34;;;;;;;15.88;2.72;;;8.70;90.40;;;;;;7382444;19;20011;-84
2023/01/10 05:29:02;;;;;;;10.10;2.50;;;8.70;90.40;;;;;;7379832;19;20038;-83
2023/01/10 05:31:31;;;;;;;15.18;3.22;;;8.70;90.40;;;;;;7375341;19;20101;-85
2023/01/10 05:34:00;;;;;;;18.05;3.20;;;8.70;90.60;;;;;;7398932;19;20046;-84
2023/01/10 05:36:31;;;;;;;22.10;3.42;;;8.70;90.60;;;;;;7381852;19;20011;-84
2023/01/10 05:39:00;;;;;;;23.55;3.03;;;8.70;90.80;;;;;;7379544;19;20018;-84
2023/01/10 05:41:29;;;;;;;10.88;2.65;;;8.70;90.80;;;;;;7377792;19;20006;-84
2023/01/10 05:43:57;;;;;;;25.65;4.07;;;8.80;90.90;;;;;;7375750;19;20081;-84
2023/01/10 05:46:26;;;;;;;11.00;2.88;;;8.80;91.00;;;;;;7372984;19;20110;-84
2023/01/10 05:48:55;;;;;;;28.40;3.78;;;8.80;91.00;;;;;;7402095;19;20035;-85
2023/01/10 05:51:24;;;;;;;10.00;3.05;;;8.80;90.90;;;;;;7381553;19;20046;-86
2023/01/10 05:53:57;;;;;;;20.83;3.08;;;8.80;91.00;;;;;;7386653;19;20006;-86
2023/01/10 05:56:26;;;;;;;20.05;3.45;;;8.80;91.00;;;;;;7382576;19;20015;-86
2023/01/10 05:58:57;;;;;;;12.38;2.70;;;8.80;90.90;;;;;;7378807;19;20399;-86
2023/01/10 06:01:25;;;;;;;17.15;3.65;;;8.80;90.80;;;;;;7378003;19;20010;-85
2023/01/10 06:03:54;;;;;;;19.83;2.85;;;8.80;90.70;;;;;;7392644;19;20032;-85
2023/01/10 06:06:23;;;;;;;20.63;3.13;;;8.80;90.80;;;;;;7380118;19;20430;-86
2023/01/10 06:08:57;;;;;;;15.90;3.17;;;8.80;90.80;;;;;;7381148;19;20015;-85
2023/01/10 06:11:28;;;;;;;16.02;3.17;;;8.70;90.90;;;;;;7375086;19;20565;-85
2023/01/10 06:13:58;;;;;;;16.58;2.92;;;8.70;90.90;;;;;;7372818;19;20121;-85
2023/01/10 06:16:27;;;;;;;21.73;3.17;;;8.70;91.00;;;;;;7377676;19;20015;-84
2023/01/10 06:18:56;;;;;;;18.80;2.88;;;8.70;91.00;;;;;;7396642;19;20010;-85
2023/01/10 06:21:24;;;;;;;14.57;2.92;;;8.70;91.00;;;;;;7374405;19;20011;-85
2023/01/10 06:23:56;;;;;;;22.15;3.58;;;8.70;91.00;;;;;;7375259;19;20031;-85
2023/01/10 06:26:25;;;;;;;26.52;3.92;;;8.70;91.00;;;;;;7373469;19;20017;-85
2023/01/10 06:28:54;;;;;;;35.90;4.22;;;8.70;91.00;;;;;;7371325;19;20042;-84
2023/01/10 06:31:22;;;;;;;25.63;6.07;;;8.70;91.00;;;;;;7391710;19;20039;-84
2023/01/10 06:33:52;;;;;;;22.60;5.63;;;8.70;91.00;;;;;;7402248;19;20046;-84
2023/01/10 06:36:21;;;;;;;30.77;4.82;;;8.70;91.10;;;;;;7385191;19;20010;-85
2023/01/10 06:38:50;;;;;;;25.95;4.90;;;8.70;91.10;;;;;;7379892;19;20006;-85
2023/01/10 06:41:21;;;;;;;12.40;4.25;;;8.70;91.20;;;;;;7374591;19;20020;-85
2023/01/10 06:43:50;;;;;;;;;;;8.70;91.20;;;;;;7373725;19;20315;-85
2023/01/10 06:46:21;;;;;;;23.08;4.38;;;8.80;91.20;;;;;;7394991;19;19915;-85
2023/01/10 06:48:51;;;;;;;27.63;5.88;;;8.70;91.00;;;;;;7374760;19;20509;-85
2023/01/10 06:51:20;;;;;;;21.55;5.57;;;8.70;91.10;;;;;;7375281;19;20010;-84
2023/01/10 06:53:49;;;;;;;17.30;4.35;;;8.70;91.10;;;;;;7379099;19;20018;-85
2023/01/10 06:56:17;;;;;;;17.08;4.53;;;8.80;91.20;;;;;;7380381;19;20031;-86
2023/01/10 06:58:50;;;;;;;30.95;4.07;;;8.80;91.20;;;;;;7383857;19;20014;-85
2023/01/10 07:01:21;;;;;;;16.52;3.55;;;8.80;91.30;;;;;;7407355;19;20047;-85
2023/01/10 07:03:50;;;;;;;14.20;4.05;;;8.90;91.40;;;;;;7374352;19;20026;-86
2023/01/10 07:06:20;;;;;;;15.63;3.63;;;8.90;91.30;;;;;;7372466;19;20068;-83
2023/01/10 07:08:48;;;;;;;28.50;4.47;;;8.90;91.70;;;;;;7370035;19;20011;-83
2023/01/10 07:11:18;;;;;;;24.15;4.22;;;8.90;91.30;;;;;;7370713;19;20014;-82
2023/01/10 07:13:52;;;;;;;16.67;4.30;;;8.90;91.30;;;;;;7371263;19;20015;-82
2023/01/10 07:16:21;;;;;;;16.92;4.35;;;9.00;91.30;;;;;;7395731;19;20018;-83
2023/01/10 07:18:49;;;;;;;13.45;4.20;;;9.00;91.30;;;;;;7381264;19;20018;-83
2023/01/10 07:21:18;;;;;;;19.40;4.47;;;9.00;91.30;;;;;;7379284;19;20018;-86
2023/01/10 07:23:49;;;;;;;23.65;5.18;;;9.00;91.30;;;;;;7373377;19;20105;-86
2023/01/10 07:26:19;;;;;;;17.27;3.70;;;9.00;91.30;;;;;;7372475;19;20076;-86
2023/01/10 07:28:52;;;;;;;28.88;4.00;;;9.00;91.40;;;;;;7378580;19;20043;-85
2023/01/10 07:31:23;;;;;;;27.10;4.72;;;9.10;91.40;;;;;;7408111;19;20086;-84
2023/01/10 07:33:53;;;;;;;33.00;4.85;;;9.00;91.30;;;;;;7381732;19;20007;-85
2023/01/10 07:36:22;;;;;;;33.90;5.65;;;9.00;91.40;;;;;;7371479;19;20576;-85
2023/01/10 07:38:51;;;;;;;30.10;5.00;;;9.10;91.50;;;;;;7374762;19;20027;-85
2023/01/10 07:41:20;;;;;;;29.38;4.60;;;9.10;91.90;;;;;;7375847;19;20014;-84
2023/01/10 07:43:51;;;;;;;16.60;4.03;;;9.10;91.50;;;;;;7369773;19;20664;-83
2023/01/10 07:46:20;;;;;;;27.95;4.07;;;9.10;91.60;;;;;;7392818;19;20082;-84
2023/01/10 07:48:48;;;;;;;21.30;4.13;;;9.10;91.60;;;;;;7368646;19;20343;-83
2023/01/10 07:51:17;;;;;;;38.20;4.07;;;9.10;91.70;;;;;;7368554;19;20006;-82
2023/01/10 07:53:46;;;;;;;20.15;3.92;;;9.10;91.70;;;;;;7368951;19;20060;-83
2023/01/10 07:56:15;;;;;;;35.50;3.75;;;9.10;91.70;;;;;;7369627;19;20608;-83
2023/01/10 07:58:45;;;;;;;15.63;3.35;;;9.20;91.70;;;;;;7372558;19;20007;-83
2023/01/10 08:01:17;;;;;;;23.65;3.88;;;9.20;91.60;;;;;;7389679;19;20035;-83
2023/01/10 08:03:45;;;;;;;25.33;3.55;;;9.20;91.70;;;;;;7366912;19;20015;-81
2023/01/10 08:06:14;;;;;;;26.55;4.32;;;9.20;91.60;;;;;;7371721;19;20015;-83
2023/01/10 08:08:43;;;;;;;30.15;4.35;;;9.30;91.70;;;;;;7376473;19;20011;-83
2023/01/10 08:11:12;;;;;;;32.60;3.90;;;9.30;91.70;;;;;;7370763;19;20499;-83
2023/01/10 08:13:40;;;;;;;29.17;3.80;;;9.30;91.60;;;;;;7367491;19;20098;-81
2023/01/10 08:16:10;;;;;;;19.17;4.03;;;9.30;91.60;;;;;;7396684;19;20015;-83
2023/01/10 08:18:45;;;;;;;26.17;4.68;;;9.30;91.60;;;;;;7374301;19;20065;-81
2023/01/10 08:21:15;;;;;;;40.13;4.70;;;9.30;91.60;;;;;;7374737;19;20010;-82
2023/01/10 08:23:44;;;;;;;21.83;3.80;;;9.30;91.60;;;;;;7375356;19;20044;-81
2023/01/10 08:26:12;;;;;;;28.65;3.97;;;9.40;91.60;;;;;;7377076;19;20320;-83
2023/01/10 08:28:41;;;;;;;23.63;4.43;;;9.40;91.50;;;;;;7377262;19;20019;-82
2023/01/10 08:31:11;;;;;;;24.83;3.63;;;9.40;91.50;;;;;;7400663;19;20015;-81
2023/01/10 08:33:42;;;;;;;24.42;3.95;;;9.40;91.60;;;;;;7374629;19;20117;-81
2023/01/10 08:36:18;;;;;;;27.65;3.92;;;9.40;91.60;;;;;;7375017;19;20151;-82
2023/01/10 08:38:47;;;;;;;26.48;4.32;;;9.40;91.60;;;;;;7375651;19;20014;-83
2023/01/10 08:41:16;;;;;;;20.77;3.42;;;9.40;91.60;;;;;;7377785;19;20014;-83
2023/01/10 08:43:44;;;;;;;24.90;4.15;;;9.50;91.60;;;;;;7374839;19;20232;-84
2023/01/10 08:46:13;;;;;;;38.53;4.65;;;9.50;91.70;;;;;;7394078;19;20391;-83
2023/01/10 08:48:49;;;;;;;31.17;4.65;;;9.50;91.70;;;;;;7374083;19;20015;-81
2023/01/10 08:51:22;;;;;;;24.60;4.18;;;9.50;91.70;;;;;;7373498;19;20007;-80
2023/01/10 08:53:51;;;;;;;24.02;4.07;;;9.50;91.70;;;;;;7374873;19;20031;-81
2023/01/10 08:56:19;;;;;;;22.38;4.18;;;9.50;91.80;;;;;;7382715;19;20555;-80
2023/01/10 08:58:48;;;;;;;31.50;4.70;;;9.60;91.90;;;;;;7384899;19;20014;-83
2023/01/10 09:01:17;;;;;;;26.63;4.65;;;9.60;92.00;;;;;;7403508;19;20018;-82
2023/01/10 09:03:48;;;;;;;31.63;4.78;;;9.60;92.00;;;;;;7375491;19;20442;-82
2023/01/10 09:06:17;;;;;;;;;;;9.60;92.00;;;;;;7373657;19;20348;-81
2023/01/10 09:08:45;;;;;;;17.38;4.53;;;9.70;92.20;;;;;;7374408;19;19974;-80
2023/01/10 09:11:14;;;;;;;19.88;4.70;;;9.60;92.10;;;;;;7376576;19;20010;-82
2023/01/10 09:13:43;;;;;;;23.70;4.63;;;9.60;92.20;;;;;;7376628;19;20012;-81
2023/01/10 09:16:12;;;;;;;34.63;5.38;;;9.70;92.30;;;;;;7397383;19;20010;-82
2023/01/10 09:18:44;;;;;;;28.30;4.60;;;9.70;92.40;;;;;;7374199;19;20011;-81
2023/01/10 09:21:21;;;;;;;35.88;5.65;;;9.70;92.50;;;;;;7373046;19;20098;-81
2023/01/10 09:23:50;;;;;;;34.83;5.50;;;9.70;92.50;;;;;;7373841;19;20029;-80
2023/01/10 09:26:19;;;;;;;34.58;5.47;;;9.70;92.50;;;;;;7373582;19;20115;-80
2023/01/10 09:28:48;;;;;;;25.60;4.78;;;9.70;92.50;;;;;;7372317;19;20035;-80
2023/01/10 09:31:17;;;;;;;29.30;4.95;;;9.80;92.60;;;;;;7397193;19;20019;-80
2023/01/10 09:33:48;;;;;;;32.78;4.60;;;9.80;92.50;;;;;;7377487;19;20018;-80
2023/01/10 09:36:19;;;;;;;33.92;5.03;;;9.80;92.60;;;;;;7376229;19;20014;-80
2023/01/10 09:38:51;;;;;;;20.33;3.50;;;9.80;92.60;;;;;;7381231;19;20014;-81
2023/01/10 09:41:52;;;;;;;21.20;3.83;;;9.80;92.60;;;;;;7387312;19;20015;-81
2023/01/10 09:44:28;;;;;;;28.00;4.43;;;9.70;92.70;;;;;;7382908;19;20018;-81
2023/01/10 09:47:09;;;;;;;24.20;4.05;;;9.80;92.80;;;;;;7382216;19;20028;-81
2023/01/10 09:49:48;;;;;;;31.65;4.32;;;9.80;92.90;;;;;;7387376;19;20014;-81
2023/01/10 09:52:26;;;;;;;32.55;5.20;;;9.80;92.90;;;;;;7404937;19;20047;-81
2023/01/10 09:55:02;;;;;;;35.88;5.63;;;9.80;92.90;;;;;;7381964;19;20018;-81
2023/01/10 09:57:31;;;;;;;26.30;4.50;;;9.90;93.00;;;;;;7372741;19;20011;-80
2023/01/10 10:00:01;;;;;;;20.33;4.82;;;9.80;93.00;;;;;;7373486;19;20030;-81
2023/01/10 10:02:34;;;;;;;35.78;5.30;;;9.90;93.00;;;;;;7373780;19;20014;-81
2023/01/10 10:05:20;;;;;;;35.97;5.55;;;9.90;93.00;;;;;;7374284;19;20018;-80
2023/01/10 10:07:56;;;;;;;31.42;5.07;;;9.90;93.10;;;;;;7376283;19;20014;-80
2023/01/10 10:10:27;;;;;;;26.48;5.22;;;9.90;93.10;;;;;;7376400;19;20019;-80
2023/01/10 10:12:59;;;;;;;;;;;9.90;93.00;;;;;;7402281;19;20018;-79
2023/01/10 10:15:33;;;;;;;;;;;10.00;93.10;;;;;;7376453;19;20005;-81
2023/01/10 10:18:12;;;;;;;32.95;5.60;;;10.00;93.10;;;;;;7377122;19;20310;-83
2023/01/10 10:20:52;;;;;;;35.78;5.10;;;9.90;93.00;;;;;;7379104;19;20014;-84
2023/01/10 10:23:47;;;;;;;30.02;5.10;;;9.90;93.10;;;;;;7380759;19;20022;-84
2023/01/10 10:26:22;;;;;;;36.28;4.63;;;9.90;93.20;;;;;;7377569;19;20339;-82
2023/01/10 10:29:24;;;;;;;25.67;5.05;;;9.90;93.30;;;;;;7374655;19;20343;-83
2023/01/10 10:32:13;;;;;;;25.58;5.13;;;9.90;93.50;;;;;;7377149;19;20018;-84
2023/01/10 10:34:47;;;;;;;39.28;5.57;;;9.90;93.50;;;;;;7376084;19;20030;-84
2023/01/10 10:37:22;;;;;;;31.00;5.28;;;9.90;93.60;;;;;;7394507;19;20014;-83
2023/01/10 10:39:57;;;;;;;33.22;5.05;;;9.90;93.60;;;;;;7384229;19;20018;-81
2023/01/10 10:42:32;;;;;;;25.23;5.20;;;10.00;93.70;;;;;;7383501;19;20010;-80
2023/01/10 10:45:03;;;;;;;35.92;5.68;;;10.00;93.60;;;;;;7381242;19;20014;-78
2023/01/10 10:47:35;;;;;;;28.23;4.50;;;10.10;93.60;;;;;;7380160;19;20315;-84
2023/01/10 10:50:18;;;;;;;41.70;5.03;;;10.10;93.70;;;;;;7376857;19;20027;-82
2023/01/10 10:52:48;;;;;;;32.55;4.70;;;10.10;93.70;;;;;;7380090;19;20015;-84
2023/01/10 10:55:24;;;;;;;24.23;4.72;;;10.10;93.70;;;;;;7398076;19;20011;-84
2023/01/10 10:57:53;;;;;;;27.90;4.95;;;10.20;93.70;;;;;;7374656;19;20013;-84
2023/01/10 11:00:24;;;;;;;23.33;4.80;;;10.10;93.60;;;;;;7381240;19;20090;-84
2023/01/10 11:02:56;;;;;;;29.83;4.90;;;10.20;93.60;;;;;;7383726;19;20015;-84
2023/01/10 11:05:33;;;;;;;33.28;4.72;;;10.20;93.60;;;;;;7382900;19;20027;-84
2023/01/10 11:08:08;;;;;;;26.38;4.60;;;10.00;93.60;;;;;;7381979;19;20018;-84
2023/01/10 11:10:40;;;;;;;32.70;4.93;;;10.10;93.70;;;;;;7382473;19;20018;-84
2023/01/10 11:13:19;;;;;;;23.60;4.13;;;10.10;93.60;;;;;;7403886;19;20322;-85
2023/01/10 11:15:49;;;;;;;18.52;4.05;;;10.10;93.70;;;;;;7374770;19;20460;-86
2023/01/10 11:18:20;;;;;;;20.67;3.73;;;10.10;93.70;;;;;;7377041;19;20439;-85
2023/01/10 11:20:56;;;;;;;32.67;4.30;;;10.10;93.80;;;;;;7378811;19;20035;-80
2023/01/10 11:23:34;;;;;;;26.27;3.83;;;10.00;93.90;;;;;;7377578;19;20114;-82
2023/01/10 11:26:06;;;;;;;18.80;4.05;;;10.00;93.90;;;;;;7378953;19;20023;-82
2023/01/10 11:28:36;;;;;;;25.60;4.40;;;10.00;94.10;;;;;;7370882;19;20103;-80
2023/01/10 11:31:06;;;;;;;28.27;4.57;;;10.10;94.10;;;;;;7389673;19;20014;-80
2023/01/10 11:33:38;;;;;;;20.50;3.53;;;10.10;94.10;;;;;;7373176;19;20034;-79
2023/01/10 11:36:11;;;;;;;26.73;6.07;;;10.00;94.20;;;;;;7378709;19;20545;-80
2023/01/10 11:38:40;;;;;;;31.83;3.63;;;10.00;94.30;;;;;;7379561;19;20015;-80
2023/01/10 11:41:30;;;;;;;33.80;4.22;;;10.10;94.30;;;;;;7376671;19;20027;-80
2023/01/10 11:44:18;;;;;;;25.58;5.07;;;10.20;94.40;;;;;;7368670;19;20014;-80
2023/01/10 11:46:48;;;;;;;41.38;6.35;;;10.10;94.50;;;;;;7368172;19;20014;-81
2023/01/10 11:49:22;;;;;;;31.33;6.70;;;10.10;94.30;;;;;;7392352;19;20018;-80
2023/01/10 11:51:53;;;;;;;23.77;5.78;;;10.20;94.30;;;;;;7369872;19;20022;-80
2023/01/10 11:54:22;;;;;;;;;;;10.20;94.20;;;;;;7374056;19;20082;-83
2023/01/10 11:56:58;;;;;;;20.02;4.93;;;10.30;94.40;;;;;;7369789;19;19935;-82
2023/01/10 11:59:29;;;;;;;29.70;5.45;;;10.20;94.20;;;;;;7372561;19;20478;-81
2023/01/10 12:02:03;;;;;;;19.88;4.72;;;10.30;94.30;;;;;;7372281;19;20031;-80
2023/01/10 12:04:35;;;;;;;26.70;4.15;;;10.30;94.30;;;;;;7374078;19;20018;-81
2023/01/10 12:07:10;;;;;;;24.23;4.55;;;10.30;94.30;;;;;;7393084;19;20039;-82
2023/01/10 12:09:41;;;;;;;12.70;3.65;;;10.30;94.30;;;;;;7369866;19;20038;-81
2023/01/10 12:12:45;;;;;;;24.35;3.90;;;10.40;94.40;;;;;;7369867;19;20048;-79
2023/01/10 12:15:26;;;;;;;22.38;3.65;;;10.30;94.50;;;;;;7367350;19;20018;-82
2023/01/10 12:17:57;;;;;;;17.67;3.20;;;10.40;94.50;;;;;;7369349;19;20028;-82
2023/01/10 12:20:29;;;;;;;16.67;3.50;;;10.40;94.40;;;;;;7369630;19;20018;-82
2023/01/10 12:23:02;;;;;;;29.70;3.85;;;10.50;94.40;;;;;;7370291;19;20018;-83
2023/01/10 12:25:36;;;;;;;19.75;3.60;;;10.50;94.50;;;;;;7370884;19;20033;-82
2023/01/10 12:28:19;;;;;;;22.67;4.03;;;10.50;94.40;;;;;;7400161;19;20017;-81
2023/01/10 12:30:50;;;;;;;17.92;3.63;;;10.50;94.50;;;;;;7377226;19;20050;-81
2023/01/10 12:33:21;;;;;;;;;;;10.60;94.50;;;;;;7373432;19;20014;-84
2023/01/10 12:35:56;;;;;;;21.25;3.47;;;10.70;94.50;;;;;;7368642;19;19923;-85
2023/01/10 12:44:10;;;;;;;16.88;3.20;;;10.70;94.50;;;;;;7379977;19;20014;-85
2023/01/10 12:44:13;;;;;;;17.80;3.30;;;10.70;94.50;;;;;;7380179;19;20006;-85
2023/01/10 12:46:48;;;;;;;13.02;3.10;;;10.60;94.70;;;;;;7378445;19;20011;-86
2023/01/10 12:49:23;;;;;;;19.63;3.15;;;10.40;95.00;;;;;;7401942;19;20018;-86
2023/01/10 12:51:56;;;;;;;21.58;3.70;;;10.40;95.10;;;;;;7374312;19;20630;-83
2023/01/10 12:54:27;;;;;;;13.52;3.33;;;10.50;95.10;;;;;;7373493;19;20042;-80
2023/01/10 12:56:57;;;;;;;;;;;10.60;95.00;;;;;;7374294;19;20010;-82
2023/01/10 12:59:36;;;;;;;15.27;3.20;;;10.70;95.00;;;;;;7375472;19;19926;-86
2023/01/10 13:02:09;;;;;;;7.60;2.63;;;10.60;94.90;;;;;;7381494;19;20030;-83
2023/01/10 13:04:40;;;;;;;11.10;3.05;;;10.60;95.00;;;;;;7384071;19;20027;-82
2023/01/10 13:07:12;;;;;;;10.25;3.20;;;10.60;95.10;;;;;;7398052;19;20350;-82
2023/01/10 13:09:44;;;;;;;13.13;2.92;;;10.50;95.20;;;;;;7375358;19;20010;-83
2023/01/10 13:12:20;;;;;;;12.60;3.10;;;10.50;95.30;;;;;;7374759;19;20011;-81
2023/01/10 13:14:57;;;;;;;14.57;2.97;;;10.60;95.30;;;;;;7374907;19;20024;-82
2023/01/10 13:17:36;;;;;;;12.82;3.05;;;10.60;95.70;;;;;;7375150;19;20021;-83
2023/01/10 13:20:20;;;;;;;9.15;3.28;;;10.60;95.30;;;;;;7379324;19;20027;-83
2023/01/10 13:22:51;;;;;;;17.48;3.28;;;10.70;95.40;;;;;;7386015;19;20046;-81
2023/01/10 13:25:24;;;;;;;12.85;3.08;;;10.70;95.30;;;;;;7407399;19;20021;-83
2023/01/10 13:28:03;;;;;;;13.68;3.55;;;10.70;95.30;;;;;;7375105;19;20459;-81
2023/01/10 13:30:39;;;;;;;21.88;3.55;;;10.60;95.70;;;;;;7374002;19;20024;-80